sensor_id;sensor_type;location;lat;lon;timestamp;P1;durP1;ratioP1;P2;durP2;ratioP2
2023;SDS011;1016;48.770;9.154;2022-08-03T00:01:27;15.60;;;3.57;;
2023;SDS011;1016;48.770;9.154;2022-08-03T00:03:53;14.90;;;3.40;;
2023;SDS011;1016;48.770;9.154;2022-08-03T00:06:18;16.27;;;3.77;;
2023;SDS011;1016;48.770;9.154;2022-08-03T00:08:44;16.70;;;3.73;;
2023;SDS011;1016;48.770;9.154;2022-08-03T00:11:09;15.33;;;3.47;;
2023;SDS011;1016;48.770;9.154;2022-08-03T00:13:35;16.93;;;3.90;;
2023;SDS011;1016;48.770;9.154;2022-08-03T00:16:01;16.20;;;3.50;;
2023;SDS011;1016;48.770;9.154;2022-08-03T00:18:26;15.80;;;3.80;;
2023;SDS011;1016;48.770;9.154;2022-08-03T00:20:52;17.37;;;3.10;;
2023;SDS011;1016;48.770;9.154;2022-08-03T00:23:17;17.17;;;3.63;;
2023;SDS011;1016;48.770;9.154;2022-08-03T00:25:43;17.07;;;3.40;;
2023;SDS011;1016;48.770;9.154;2022-08-03T00:28:08;17.30;;;3.60;;
2023;SDS011;1016;48.770;9.154;2022-08-03T00:30:35;15.73;;;3.60;;
2023;SDS011;1016;48.770;9.154;2022-08-03T00:33:01;15.60;;;3.60;;
2023;SDS011;1016;48.770;9.154;2022-08-03T00:35:27;15.13;;;3.30;;
2023;SDS011;1016;48.770;9.154;2022-08-03T00:37:53;15.77;;;3.50;;
2023;SDS011;1016;48.770;9.154;2022-08-03T00:40:19;14.70;;;3.27;;
2023;SDS011;1016;48.770;9.154;2022-08-03T00:42:52;16.20;;;3.40;;
2023;SDS011;1016;48.770;9.154;2022-08-03T00:45:24;15.47;;;3.70;;
2023;SDS011;1016;48.770;9.154;2022-08-03T00:47:51;16.20;;;3.47;;
2023;SDS011;1016;48.770;9.154;2022-08-03T00:50:17;15.50;;;3.37;;
2023;SDS011;1016;48.770;9.154;2022-08-03T00:52:43;15.40;;;3.90;;
2023;SDS011;1016;48.770;9.154;2022-08-03T00:55:10;14.40;;;3.07;;
2023;SDS011;1016;48.770;9.154;2022-08-03T00:57:36;16.87;;;3.70;;
2023;SDS011;1016;48.770;9.154;2022-08-03T01:00:03;16.13;;;3.83;;
2023;SDS011;1016;48.770;9.154;2022-08-03T01:02:33;16.00;;;3.50;;
2023;SDS011;1016;48.770;9.154;2022-08-03T01:04:58;15.40;;;3.43;;
2023;SDS011;1016;48.770;9.154;2022-08-03T01:18:51;15.40;;;3.60;;
2023;SDS011;1016;48.770;9.154;2022-08-03T01:21:32;15.23;;;3.27;;
2023;SDS011;1016;48.770;9.154;2022-08-03T01:26:54;14.83;;;3.20;;
2023;SDS011;1016;48.770;9.154;2022-08-03T01:29:34;15.20;;;3.40;;
2023;SDS011;1016;48.770;9.154;2022-08-03T01:32:11;16.13;;;3.70;;
2023;SDS011;1016;48.770;9.154;2022-08-03T01:34:44;15.70;;;3.43;;
2023;SDS011;1016;48.770;9.154;2022-08-03T01:37:15;16.03;;;3.63;;
2023;SDS011;1016;48.770;9.154;2022-08-03T01:39:48;15.73;;;3.77;;
2023;SDS011;1016;48.770;9.154;2022-08-03T01:42:18;16.20;;;3.67;;
2023;SDS011;1016;48.770;9.154;2022-08-03T01:44:45;15.17;;;3.70;;
2023;SDS011;1016;48.770;9.154;2022-08-03T01:47:12;16.30;;;3.60;;
2023;SDS011;1016;48.770;9.154;2022-08-03T01:49:42;16.00;;;3.97;;
2023;SDS011;1016;48.770;9.154;2022-08-03T01:52:09;17.17;;;3.80;;
2023;SDS011;1016;48.770;9.154;2022-08-03T01:54:36;15.47;;;3.57;;
2023;SDS011;1016;48.770;9.154;2022-08-03T01:57:07;16.70;;;3.87;;
2023;SDS011;1016;48.770;9.154;2022-08-03T01:59:34;16.03;;;3.77;;
2023;SDS011;1016;48.770;9.154;2022-08-03T02:02:03;15.20;;;3.73;;
2023;SDS011;1016;48.770;9.154;2022-08-03T02:04:29;16.50;;;3.77;;
2023;SDS011;1016;48.770;9.154;2022-08-03T02:06:56;18.97;;;3.70;;
2023;SDS011;1016;48.770;9.154;2022-08-03T02:09:23;15.30;;;3.30;;
2023;SDS011;1016;48.770;9.154;2022-08-03T02:11:51;16.40;;;3.93;;
2023;SDS011;1016;48.770;9.154;2022-08-03T02:14:18;16.10;;;3.60;;
2023;SDS011;1016;48.770;9.154;2022-08-03T02:16:45;18.30;;;3.77;;
2023;SDS011;1016;48.770;9.154;2022-08-03T02:19:11;15.87;;;3.90;;
2023;SDS011;1016;48.770;9.154;2022-08-03T02:21:38;15.50;;;3.43;;
2023;SDS011;1016;48.770;9.154;2022-08-03T02:24:07;15.80;;;3.57;;
2023;SDS011;1016;48.770;9.154;2022-08-03T02:26:33;15.63;;;3.47;;
2023;SDS011;1016;48.770;9.154;2022-08-03T02:29:02;17.73;;;3.70;;
2023;SDS011;1016;48.770;9.154;2022-08-03T02:31:32;17.20;;;4.10;;
2023;SDS011;1016;48.770;9.154;2022-08-03T02:34:01;15.30;;;3.60;;
2023;SDS011;1016;48.770;9.154;2022-08-03T02:36:30;15.30;;;3.67;;
2023;SDS011;1016;48.770;9.154;2022-08-03T02:39:02;16.40;;;3.80;;
2023;SDS011;1016;48.770;9.154;2022-08-03T02:41:34;16.67;;;3.73;;
2023;SDS011;1016;48.770;9.154;2022-08-03T02:44:06;15.60;;;3.67;;
2023;SDS011;1016;48.770;9.154;2022-08-03T02:46:35;15.73;;;3.80;;
2023;SDS011;1016;48.770;9.154;2022-08-03T02:49:03;15.83;;;3.83;;
2023;SDS011;1016;48.770;9.154;2022-08-03T02:51:31;15.50;;;3.60;;
2023;SDS011;1016;48.770;9.154;2022-08-03T02:53:59;15.63;;;3.63;;
2023;SDS011;1016;48.770;9.154;2022-08-03T02:56:27;16.80;;;4.03;;
2023;SDS011;1016;48.770;9.154;2022-08-03T02:58:53;15.90;;;3.60;;
2023;SDS011;1016;48.770;9.154;2022-08-03T03:01:22;15.20;;;3.73;;
2023;SDS011;1016;48.770;9.154;2022-08-03T03:03:50;17.30;;;4.10;;
2023;SDS011;1016;48.770;9.154;2022-08-03T03:06:17;16.77;;;4.27;;
2023;SDS011;1016;48.770;9.154;2022-08-03T03:08:43;15.70;;;3.60;;
2023;SDS011;1016;48.770;9.154;2022-08-03T03:11:10;16.20;;;3.87;;
2023;SDS011;1016;48.770;9.154;2022-08-03T03:13:38;16.27;;;3.83;;
2023;SDS011;1016;48.770;9.154;2022-08-03T03:16:06;17.30;;;4.20;;
2023;SDS011;1016;48.770;9.154;2022-08-03T03:18:33;19.90;;;4.00;;
2023;SDS011;1016;48.770;9.154;2022-08-03T03:20:59;15.80;;;3.70;;
2023;SDS011;1016;48.770;9.154;2022-08-03T03:23:27;16.67;;;4.40;;
2023;SDS011;1016;48.770;9.154;2022-08-03T03:25:54;16.03;;;3.70;;
2023;SDS011;1016;48.770;9.154;2022-08-03T03:28:20;15.43;;;4.00;;
2023;SDS011;1016;48.770;9.154;2022-08-03T03:30:48;15.80;;;4.00;;
2023;SDS011;1016;48.770;9.154;2022-08-03T03:33:13;17.90;;;4.40;;
2023;SDS011;1016;48.770;9.154;2022-08-03T03:35:40;17.20;;;4.10;;
2023;SDS011;1016;48.770;9.154;2022-08-03T03:38:07;16.23;;;4.10;;
2023;SDS011;1016;48.770;9.154;2022-08-03T03:40:35;15.90;;;3.90;;
2023;SDS011;1016;48.770;9.154;2022-08-03T03:43:02;15.50;;;3.87;;
2023;SDS011;1016;48.770;9.154;2022-08-03T03:45:32;15.60;;;4.07;;
2023;SDS011;1016;48.770;9.154;2022-08-03T03:47:59;16.60;;;4.37;;
2023;SDS011;1016;48.770;9.154;2022-08-03T03:50:26;17.20;;;4.50;;
2023;SDS011;1016;48.770;9.154;2022-08-03T03:52:52;16.03;;;3.87;;
2023;SDS011;1016;48.770;9.154;2022-08-03T03:55:17;16.57;;;4.23;;
2023;SDS011;1016;48.770;9.154;2022-08-03T03:57:43;29.00;;;4.80;;
2023;SDS011;1016;48.770;9.154;2022-08-03T04:00:10;15.90;;;4.27;;
2023;SDS011;1016;48.770;9.154;2022-08-03T04:02:37;16.70;;;4.50;;
2023;SDS011;1016;48.770;9.154;2022-08-03T04:05:03;16.33;;;4.37;;
2023;SDS011;1016;48.770;9.154;2022-08-03T04:07:58;16.63;;;4.17;;
2023;SDS011;1016;48.770;9.154;2022-08-03T04:10:53;16.23;;;4.17;;
2023;SDS011;1016;48.770;9.154;2022-08-03T04:13:41;16.10;;;4.63;;
2023;SDS011;1016;48.770;9.154;2022-08-03T04:16:09;16.23;;;4.30;;
2023;SDS011;1016;48.770;9.154;2022-08-03T04:18:39;16.97;;;4.90;;
2023;SDS011;1016;48.770;9.154;2022-08-03T04:21:07;17.20;;;5.13;;
2023;SDS011;1016;48.770;9.154;2022-08-03T04:23:36;17.53;;;4.63;;
2023;SDS011;1016;48.770;9.154;2022-08-03T04:26:07;17.17;;;4.63;;
2023;SDS011;1016;48.770;9.154;2022-08-03T04:28:36;16.60;;;4.37;;
2023;SDS011;1016;48.770;9.154;2022-08-03T04:31:07;17.07;;;4.30;;
2023;SDS011;1016;48.770;9.154;2022-08-03T04:33:34;17.60;;;4.63;;
2023;SDS011;1016;48.770;9.154;2022-08-03T04:36:03;19.03;;;4.50;;
2023;SDS011;1016;48.770;9.154;2022-08-03T04:38:31;17.83;;;4.93;;
2023;SDS011;1016;48.770;9.154;2022-08-03T04:41:00;17.20;;;4.20;;
2023;SDS011;1016;48.770;9.154;2022-08-03T04:43:27;16.13;;;4.43;;
2023;SDS011;1016;48.770;9.154;2022-08-03T04:45:56;16.30;;;4.80;;
2023;SDS011;1016;48.770;9.154;2022-08-03T04:48:23;17.30;;;5.33;;
2023;SDS011;1016;48.770;9.154;2022-08-03T04:50:48;18.40;;;5.90;;
2023;SDS011;1016;48.770;9.154;2022-08-03T04:53:15;21.10;;;6.50;;
2023;SDS011;1016;48.770;9.154;2022-08-03T04:55:40;17.60;;;6.27;;
2023;SDS011;1016;48.770;9.154;2022-08-03T04:58:06;16.90;;;5.80;;
2023;SDS011;1016;48.770;9.154;2022-08-03T05:00:31;17.87;;;5.70;;
2023;SDS011;1016;48.770;9.154;2022-08-03T05:02:57;17.90;;;5.70;;
2023;SDS011;1016;48.770;9.154;2022-08-03T05:05:23;20.40;;;5.80;;
2023;SDS011;1016;48.770;9.154;2022-08-03T05:07:48;18.10;;;5.47;;
2023;SDS011;1016;48.770;9.154;2022-08-03T05:10:14;17.80;;;6.30;;
2023;SDS011;1016;48.770;9.154;2022-08-03T05:12:40;17.40;;;5.70;;
2023;SDS011;1016;48.770;9.154;2022-08-03T05:15:06;18.80;;;5.70;;
2023;SDS011;1016;48.770;9.154;2022-08-03T05:17:32;19.50;;;5.80;;
2023;SDS011;1016;48.770;9.154;2022-08-03T05:19:58;16.80;;;5.40;;
2023;SDS011;1016;48.770;9.154;2022-08-03T05:22:24;17.67;;;5.27;;
2023;SDS011;1016;48.770;9.154;2022-08-03T05:24:50;17.13;;;5.07;;
2023;SDS011;1016;48.770;9.154;2022-08-03T05:27:16;16.40;;;4.60;;
2023;SDS011;1016;48.770;9.154;2022-08-03T05:29:46;16.30;;;4.90;;
2023;SDS011;1016;48.770;9.154;2022-08-03T05:32:14;17.40;;;4.93;;
2023;SDS011;1016;48.770;9.154;2022-08-03T05:34:40;18.17;;;4.20;;
2023;SDS011;1016;48.770;9.154;2022-08-03T05:37:06;16.47;;;4.80;;
2023;SDS011;1016;48.770;9.154;2022-08-03T05:39:33;16.73;;;4.30;;
2023;SDS011;1016;48.770;9.154;2022-08-03T05:41:59;16.00;;;3.90;;
2023;SDS011;1016;48.770;9.154;2022-08-03T05:44:24;16.77;;;4.10;;
2023;SDS011;1016;48.770;9.154;2022-08-03T05:46:50;16.37;;;3.80;;
2023;SDS011;1016;48.770;9.154;2022-08-03T05:49:16;15.70;;;3.80;;
2023;SDS011;1016;48.770;9.154;2022-08-03T05:51:42;17.00;;;3.80;;
2023;SDS011;1016;48.770;9.154;2022-08-03T05:54:08;16.57;;;4.00;;
2023;SDS011;1016;48.770;9.154;2022-08-03T05:56:33;16.70;;;4.30;;
2023;SDS011;1016;48.770;9.154;2022-08-03T05:58:59;16.30;;;4.17;;
2023;SDS011;1016;48.770;9.154;2022-08-03T06:01:24;16.30;;;3.67;;
2023;SDS011;1016;48.770;9.154;2022-08-03T06:03:50;19.20;;;4.00;;
2023;SDS011;1016;48.770;9.154;2022-08-03T06:06:16;16.50;;;3.70;;
2023;SDS011;1016;48.770;9.154;2022-08-03T06:08:42;17.40;;;3.90;;
2023;SDS011;1016;48.770;9.154;2022-08-03T06:11:08;16.67;;;4.07;;
2023;SDS011;1016;48.770;9.154;2022-08-03T06:13:34;16.30;;;3.67;;
2023;SDS011;1016;48.770;9.154;2022-08-03T06:16:00;16.57;;;3.80;;
2023;SDS011;1016;48.770;9.154;2022-08-03T06:18:26;18.63;;;4.43;;
2023;SDS011;1016;48.770;9.154;2022-08-03T06:20:52;16.60;;;4.10;;
2023;SDS011;1016;48.770;9.154;2022-08-03T06:23:18;16.97;;;3.80;;
2023;SDS011;1016;48.770;9.154;2022-08-03T06:25:44;20.47;;;3.80;;
2023;SDS011;1016;48.770;9.154;2022-08-03T06:28:10;17.20;;;4.20;;
2023;SDS011;1016;48.770;9.154;2022-08-03T06:30:37;16.30;;;3.93;;
2023;SDS011;1016;48.770;9.154;2022-08-03T06:33:03;16.10;;;3.20;;
2023;SDS011;1016;48.770;9.154;2022-08-03T06:35:29;16.53;;;4.00;;
2023;SDS011;1016;48.770;9.154;2022-08-03T06:37:54;16.50;;;4.10;;
2023;SDS011;1016;48.770;9.154;2022-08-03T06:40:21;17.23;;;4.20;;
2023;SDS011;1016;48.770;9.154;2022-08-03T06:42:58;17.20;;;4.03;;
2023;SDS011;1016;48.770;9.154;2022-08-03T06:45:25;18.30;;;4.03;;
2023;SDS011;1016;48.770;9.154;2022-08-03T06:50:33;16.63;;;4.13;;
2023;SDS011;1016;48.770;9.154;2022-08-03T06:53:00;17.00;;;3.77;;
2023;SDS011;1016;48.770;9.154;2022-08-03T06:55:26;16.20;;;4.00;;
2023;SDS011;1016;48.770;9.154;2022-08-03T06:57:52;15.80;;;4.03;;
2023;SDS011;1016;48.770;9.154;2022-08-03T07:00:18;20.07;;;4.50;;
2023;SDS011;1016;48.770;9.154;2022-08-03T07:02:44;17.17;;;4.20;;
2023;SDS011;1016;48.770;9.154;2022-08-03T07:05:12;16.63;;;4.00;;
2023;SDS011;1016;48.770;9.154;2022-08-03T07:07:37;16.60;;;3.87;;
2023;SDS011;1016;48.770;9.154;2022-08-03T07:10:04;15.40;;;3.80;;
2023;SDS011;1016;48.770;9.154;2022-08-03T07:12:30;17.03;;;3.73;;
2023;SDS011;1016;48.770;9.154;2022-08-03T07:14:57;15.70;;;3.63;;
2023;SDS011;1016;48.770;9.154;2022-08-03T07:17:23;18.33;;;3.73;;
2023;SDS011;1016;48.770;9.154;2022-08-03T07:19:49;15.90;;;3.73;;
2023;SDS011;1016;48.770;9.154;2022-08-03T07:22:15;17.60;;;4.90;;
2023;SDS011;1016;48.770;9.154;2022-08-03T07:24:41;16.20;;;4.03;;
2023;SDS011;1016;48.770;9.154;2022-08-03T07:27:07;18.10;;;3.60;;
2023;SDS011;1016;48.770;9.154;2022-08-03T07:29:33;15.17;;;3.07;;
2023;SDS011;1016;48.770;9.154;2022-08-03T07:32:00;16.40;;;3.30;;
2023;SDS011;1016;48.770;9.154;2022-08-03T07:34:26;16.90;;;3.53;;
2023;SDS011;1016;48.770;9.154;2022-08-03T07:36:52;16.57;;;3.47;;
2023;SDS011;1016;48.770;9.154;2022-08-03T07:39:17;16.80;;;3.17;;
2023;SDS011;1016;48.770;9.154;2022-08-03T07:41:43;19.43;;;3.27;;
2023;SDS011;1016;48.770;9.154;2022-08-03T07:44:09;17.70;;;2.90;;
2023;SDS011;1016;48.770;9.154;2022-08-03T07:46:35;18.13;;;3.40;;
2023;SDS011;1016;48.770;9.154;2022-08-03T07:49:01;19.57;;;4.70;;
2023;SDS011;1016;48.770;9.154;2022-08-03T07:51:26;15.73;;;2.80;;
2023;SDS011;1016;48.770;9.154;2022-08-03T07:53:52;14.30;;;2.27;;
2023;SDS011;1016;48.770;9.154;2022-08-03T07:56:19;16.43;;;2.50;;
2023;SDS011;1016;48.770;9.154;2022-08-03T07:58:45;17.07;;;2.77;;
2023;SDS011;1016;48.770;9.154;2022-08-03T08:01:10;16.40;;;2.37;;
2023;SDS011;1016;48.770;9.154;2022-08-03T08:03:36;14.40;;;2.47;;
2023;SDS011;1016;48.770;9.154;2022-08-03T08:06:01;15.13;;;2.50;;
2023;SDS011;1016;48.770;9.154;2022-08-03T08:08:27;15.10;;;2.20;;
2023;SDS011;1016;48.770;9.154;2022-08-03T08:10:53;16.27;;;2.57;;
2023;SDS011;1016;48.770;9.154;2022-08-03T08:13:18;15.00;;;2.17;;
2023;SDS011;1016;48.770;9.154;2022-08-03T08:15:44;15.03;;;2.20;;
2023;SDS011;1016;48.770;9.154;2022-08-03T08:18:09;15.97;;;2.47;;
2023;SDS011;1016;48.770;9.154;2022-08-03T08:20:35;16.23;;;3.07;;
2023;SDS011;1016;48.770;9.154;2022-08-03T08:23:05;19.90;;;2.47;;
2023;SDS011;1016;48.770;9.154;2022-08-03T08:25:33;15.20;;;2.30;;
2023;SDS011;1016;48.770;9.154;2022-08-03T08:27:59;14.13;;;1.93;;
2023;SDS011;1016;48.770;9.154;2022-08-03T08:30:28;15.53;;;2.30;;
2023;SDS011;1016;48.770;9.154;2022-08-03T08:32:55;15.50;;;2.30;;
2023;SDS011;1016;48.770;9.154;2022-08-03T08:35:21;15.07;;;2.10;;
2023;SDS011;1016;48.770;9.154;2022-08-03T08:37:47;14.60;;;2.10;;
2023;SDS011;1016;48.770;9.154;2022-08-03T08:40:13;14.20;;;1.97;;
2023;SDS011;1016;48.770;9.154;2022-08-03T08:42:39;15.03;;;2.03;;
2023;SDS011;1016;48.770;9.154;2022-08-03T08:45:07;14.57;;;1.90;;
2023;SDS011;1016;48.770;9.154;2022-08-03T08:47:36;17.20;;;1.90;;
2023;SDS011;1016;48.770;9.154;2022-08-03T08:50:03;15.40;;;2.00;;
2023;SDS011;1016;48.770;9.154;2022-08-03T08:52:32;15.20;;;2.17;;
2023;SDS011;1016;48.770;9.154;2022-08-03T08:54:59;16.03;;;2.20;;
2023;SDS011;1016;48.770;9.154;2022-08-03T08:57:28;15.40;;;2.00;;
2023;SDS011;1016;48.770;9.154;2022-08-03T09:00:02;15.87;;;2.20;;
2023;SDS011;1016;48.770;9.154;2022-08-03T09:02:38;14.47;;;2.10;;
2023;SDS011;1016;48.770;9.154;2022-08-03T09:05:06;15.27;;;2.40;;
2023;SDS011;1016;48.770;9.154;2022-08-03T09:07:38;15.93;;;2.30;;
2023;SDS011;1016;48.770;9.154;2022-08-03T09:10:05;14.13;;;2.27;;
2023;SDS011;1016;48.770;9.154;2022-08-03T09:12:41;15.90;;;2.20;;
2023;SDS011;1016;48.770;9.154;2022-08-03T09:15:18;16.67;;;2.40;;
2023;SDS011;1016;48.770;9.154;2022-08-03T09:17:48;16.23;;;2.00;;
2023;SDS011;1016;48.770;9.154;2022-08-03T09:20:15;16.13;;;2.00;;
2023;SDS011;1016;48.770;9.154;2022-08-03T09:25:26;15.27;;;2.00;;
2023;SDS011;1016;48.770;9.154;2022-08-03T09:28:09;15.17;;;2.20;;
2023;SDS011;1016;48.770;9.154;2022-08-03T09:30:37;15.60;;;2.30;;
2023;SDS011;1016;48.770;9.154;2022-08-03T09:33:11;15.40;;;2.20;;
2023;SDS011;1016;48.770;9.154;2022-08-03T09:35:40;14.47;;;2.20;;
2023;SDS011;1016;48.770;9.154;2022-08-03T09:38:07;15.23;;;2.33;;
2023;SDS011;1016;48.770;9.154;2022-08-03T09:40:37;17.27;;;2.00;;
2023;SDS011;1016;48.770;9.154;2022-08-03T09:43:03;14.97;;;2.40;;
2023;SDS011;1016;48.770;9.154;2022-08-03T09:45:32;15.30;;;2.03;;
2023;SDS011;1016;48.770;9.154;2022-08-03T09:48:12;15.37;;;1.90;;
2023;SDS011;1016;48.770;9.154;2022-08-03T09:50:49;14.43;;;2.23;;
2023;SDS011;1016;48.770;9.154;2022-08-03T09:53:16;13.73;;;1.77;;
2023;SDS011;1016;48.770;9.154;2022-08-03T09:55:52;14.00;;;1.83;;
2023;SDS011;1016;48.770;9.154;2022-08-03T09:58:21;14.27;;;1.90;;
2023;SDS011;1016;48.770;9.154;2022-08-03T10:01:02;14.20;;;1.70;;
2023;SDS011;1016;48.770;9.154;2022-08-03T10:03:30;15.40;;;2.60;;
2023;SDS011;1016;48.770;9.154;2022-08-03T10:05:58;14.80;;;1.90;;
2023;SDS011;1016;48.770;9.154;2022-08-03T10:08:39;16.93;;;2.13;;
2023;SDS011;1016;48.770;9.154;2022-08-03T10:11:04;13.77;;;1.87;;
2023;SDS011;1016;48.770;9.154;2022-08-03T10:13:30;16.93;;;1.97;;
2023;SDS011;1016;48.770;9.154;2022-08-03T10:15:56;14.17;;;1.90;;
2023;SDS011;1016;48.770;9.154;2022-08-03T10:18:22;15.40;;;2.80;;
2023;SDS011;1016;48.770;9.154;2022-08-03T10:23:15;13.93;;;1.97;;
2023;SDS011;1016;48.770;9.154;2022-08-03T10:25:42;14.03;;;1.80;;
2023;SDS011;1016;48.770;9.154;2022-08-03T10:28:12;14.50;;;1.80;;
2023;SDS011;1016;48.770;9.154;2022-08-03T10:30:40;13.90;;;2.00;;
2023;SDS011;1016;48.770;9.154;2022-08-03T10:35:46;15.13;;;2.10;;
2023;SDS011;1016;48.770;9.154;2022-08-03T10:38:17;13.97;;;2.00;;
2023;SDS011;1016;48.770;9.154;2022-08-03T10:40:45;16.93;;;2.30;;
2023;SDS011;1016;48.770;9.154;2022-08-03T10:43:20;14.80;;;2.20;;
2023;SDS011;1016;48.770;9.154;2022-08-03T10:45:59;14.50;;;2.07;;
2023;SDS011;1016;48.770;9.154;2022-08-03T10:48:26;14.23;;;2.00;;
2023;SDS011;1016;48.770;9.154;2022-08-03T10:50:52;14.40;;;1.90;;
2023;SDS011;1016;48.770;9.154;2022-08-03T10:53:33;15.33;;;1.90;;
2023;SDS011;1016;48.770;9.154;2022-08-03T10:56:37;13.93;;;1.90;;
2023;SDS011;1016;48.770;9.154;2022-08-03T10:59:15;14.00;;;1.90;;
2023;SDS011;1016;48.770;9.154;2022-08-03T11:01:51;14.70;;;1.77;;
2023;SDS011;1016;48.770;9.154;2022-08-03T11:04:20;14.20;;;2.20;;
2023;SDS011;1016;48.770;9.154;2022-08-03T11:06:54;14.10;;;2.10;;
2023;SDS011;1016;48.770;9.154;2022-08-03T11:09:39;16.10;;;2.17;;
2023;SDS011;1016;48.770;9.154;2022-08-03T11:12:19;14.10;;;2.13;;
2023;SDS011;1016;48.770;9.154;2022-08-03T11:14:56;14.10;;;2.10;;
2023;SDS011;1016;48.770;9.154;2022-08-03T11:17:24;13.90;;;2.00;;
2023;SDS011;1016;48.770;9.154;2022-08-03T11:19:51;15.37;;;2.20;;
2023;SDS011;1016;48.770;9.154;2022-08-03T11:22:18;16.53;;;2.13;;
2023;SDS011;1016;48.770;9.154;2022-08-03T11:35:10;15.47;;;2.30;;
2023;SDS011;1016;48.770;9.154;2022-08-03T11:46:02;14.67;;;2.30;;
2023;SDS011;1016;48.770;9.154;2022-08-03T11:48:39;15.80;;;2.10;;
2023;SDS011;1016;48.770;9.154;2022-08-03T11:51:22;14.53;;;1.93;;
2023;SDS011;1016;48.770;9.154;2022-08-03T11:53:53;15.87;;;2.33;;
2023;SDS011;1016;48.770;9.154;2022-08-03T11:56:26;16.00;;;2.20;;
2023;SDS011;1016;48.770;9.154;2022-08-03T11:58:53;15.33;;;2.10;;
2023;SDS011;1016;48.770;9.154;2022-08-03T12:01:21;14.90;;;2.30;;
2023;SDS011;1016;48.770;9.154;2022-08-03T12:03:48;16.85;;;2.30;;
2023;SDS011;1016;48.770;9.154;2022-08-03T12:06:14;15.35;;;2.00;;
2023;SDS011;1016;48.770;9.154;2022-08-03T12:08:41;16.00;;;1.93;;
2023;SDS011;1016;48.770;9.154;2022-08-03T12:11:10;14.40;;;2.30;;
2023;SDS011;1016;48.770;9.154;2022-08-03T12:13:40;20.17;;;8.50;;
2023;SDS011;1016;48.770;9.154;2022-08-03T12:16:07;14.37;;;2.33;;
2023;SDS011;1016;48.770;9.154;2022-08-03T12:18:33;13.50;;;2.00;;
2023;SDS011;1016;48.770;9.154;2022-08-03T12:21:06;15.17;;;2.13;;
2023;SDS011;1016;48.770;9.154;2022-08-03T12:23:34;14.43;;;2.63;;
2023;SDS011;1016;48.770;9.154;2022-08-03T12:26:05;15.33;;;2.40;;
2023;SDS011;1016;48.770;9.154;2022-08-03T12:28:32;14.23;;;2.30;;
2023;SDS011;1016;48.770;9.154;2022-08-03T12:31:02;14.43;;;2.20;;
2023;SDS011;1016;48.770;9.154;2022-08-03T12:33:30;14.73;;;2.30;;
2023;SDS011;1016;48.770;9.154;2022-08-03T12:36:06;13.80;;;2.10;;
2023;SDS011;1016;48.770;9.154;2022-08-03T12:38:33;15.50;;;2.30;;
2023;SDS011;1016;48.770;9.154;2022-08-03T12:41:09;14.60;;;2.10;;
2023;SDS011;1016;48.770;9.154;2022-08-03T12:43:47;14.60;;;2.20;;
2023;SDS011;1016;48.770;9.154;2022-08-03T12:46:14;15.40;;;2.10;;
2023;SDS011;1016;48.770;9.154;2022-08-03T12:48:56;17.00;;;2.20;;
2023;SDS011;1016;48.770;9.154;2022-08-03T12:51:31;14.40;;;2.20;;
2023;SDS011;1016;48.770;9.154;2022-08-03T12:53:58;15.53;;;2.33;;
2023;SDS011;1016;48.770;9.154;2022-08-03T12:56:24;14.50;;;2.40;;
2023;SDS011;1016;48.770;9.154;2022-08-03T12:58:50;14.00;;;2.23;;
2023;SDS011;1016;48.770;9.154;2022-08-03T13:01:16;14.00;;;2.37;;
2023;SDS011;1016;48.770;9.154;2022-08-03T13:03:43;15.20;;;2.30;;
2023;SDS011;1016;48.770;9.154;2022-08-03T13:06:14;15.20;;;2.10;;
2023;SDS011;1016;48.770;9.154;2022-08-03T13:08:45;14.87;;;2.57;;
2023;SDS011;1016;48.770;9.154;2022-08-03T13:11:18;16.27;;;2.30;;
2023;SDS011;1016;48.770;9.154;2022-08-03T13:13:45;14.13;;;2.20;;
2023;SDS011;1016;48.770;9.154;2022-08-03T13:16:12;14.00;;;2.10;;
2023;SDS011;1016;48.770;9.154;2022-08-03T13:18:37;13.67;;;2.23;;
2023;SDS011;1016;48.770;9.154;2022-08-03T13:21:03;14.00;;;2.17;;
2023;SDS011;1016;48.770;9.154;2022-08-03T13:23:29;14.07;;;2.40;;
2023;SDS011;1016;48.770;9.154;2022-08-03T13:25:55;13.63;;;2.20;;
2023;SDS011;1016;48.770;9.154;2022-08-03T13:28:21;14.00;;;2.20;;
2023;SDS011;1016;48.770;9.154;2022-08-03T13:30:46;14.87;;;2.17;;
2023;SDS011;1016;48.770;9.154;2022-08-03T13:33:12;14.13;;;2.00;;
2023;SDS011;1016;48.770;9.154;2022-08-03T13:35:37;18.17;;;2.40;;
2023;SDS011;1016;48.770;9.154;2022-08-03T13:38:03;15.00;;;3.30;;
2023;SDS011;1016;48.770;9.154;2022-08-03T13:40:28;14.60;;;2.30;;
2023;SDS011;1016;48.770;9.154;2022-08-03T13:42:55;83.43;;;8.47;;
2023;SDS011;1016;48.770;9.154;2022-08-03T13:45:21;21.17;;;2.70;;
2023;SDS011;1016;48.770;9.154;2022-08-03T13:47:48;21.20;;;2.97;;
2023;SDS011;1016;48.770;9.154;2022-08-03T13:50:13;14.30;;;2.20;;
2023;SDS011;1016;48.770;9.154;2022-08-03T13:52:39;14.60;;;2.50;;
2023;SDS011;1016;48.770;9.154;2022-08-03T13:55:06;13.60;;;1.97;;
2023;SDS011;1016;48.770;9.154;2022-08-03T13:57:33;14.90;;;2.20;;
2023;SDS011;1016;48.770;9.154;2022-08-03T13:59:59;15.47;;;3.83;;
2023;SDS011;1016;48.770;9.154;2022-08-03T14:02:26;13.57;;;2.10;;
2023;SDS011;1016;48.770;9.154;2022-08-03T14:04:51;15.13;;;2.37;;
2023;SDS011;1016;48.770;9.154;2022-08-03T14:07:18;13.97;;;2.10;;
2023;SDS011;1016;48.770;9.154;2022-08-03T14:09:44;13.40;;;1.90;;
2023;SDS011;1016;48.770;9.154;2022-08-03T14:12:09;14.40;;;1.90;;
2023;SDS011;1016;48.770;9.154;2022-08-03T14:14:35;13.07;;;2.03;;
2023;SDS011;1016;48.770;9.154;2022-08-03T14:17:00;15.13;;;1.87;;
2023;SDS011;1016;48.770;9.154;2022-08-03T14:19:26;12.87;;;2.00;;
2023;SDS011;1016;48.770;9.154;2022-08-03T14:21:52;12.85;;;2.17;;
2023;SDS011;1016;48.770;9.154;2022-08-03T14:24:17;12.88;;;1.90;;
2023;SDS011;1016;48.770;9.154;2022-08-03T14:26:43;12.27;;;1.98;;
2023;SDS011;1016;48.770;9.154;2022-08-03T14:29:08;15.15;;;1.80;;
2023;SDS011;1016;48.770;9.154;2022-08-03T14:31:35;13.57;;;2.40;;
2023;SDS011;1016;48.770;9.154;2022-08-03T14:34:01;13.75;;;2.08;;
2023;SDS011;1016;48.770;9.154;2022-08-03T14:36:26;12.77;;;2.10;;
2023;SDS011;1016;48.770;9.154;2022-08-03T14:38:52;13.60;;;1.97;;
2023;SDS011;1016;48.770;9.154;2022-08-03T14:41:17;14.40;;;2.00;;
2023;SDS011;1016;48.770;9.154;2022-08-03T14:43:43;13.47;;;2.40;;
2023;SDS011;1016;48.770;9.154;2022-08-03T14:46:08;13.40;;;1.87;;
2023;SDS011;1016;48.770;9.154;2022-08-03T14:48:34;15.10;;;2.13;;
2023;SDS011;1016;48.770;9.154;2022-08-03T14:50:59;15.73;;;2.70;;
2023;SDS011;1016;48.770;9.154;2022-08-03T14:53:25;16.00;;;2.20;;
2023;SDS011;1016;48.770;9.154;2022-08-03T14:55:52;24.80;;;3.00;;
2023;SDS011;1016;48.770;9.154;2022-08-03T14:58:18;16.87;;;2.23;;
2023;SDS011;1016;48.770;9.154;2022-08-03T15:00:44;14.40;;;2.10;;
2023;SDS011;1016;48.770;9.154;2022-08-03T15:03:10;14.90;;;2.13;;
2023;SDS011;1016;48.770;9.154;2022-08-03T15:05:35;14.30;;;2.20;;
2023;SDS011;1016;48.770;9.154;2022-08-03T15:08:01;14.43;;;2.40;;
2023;SDS011;1016;48.770;9.154;2022-08-03T15:12:52;16.55;;;3.22;;
2023;SDS011;1016;48.770;9.154;2022-08-03T15:15:19;16.33;;;2.40;;
2023;SDS011;1016;48.770;9.154;2022-08-03T15:17:44;16.20;;;2.70;;
2023;SDS011;1016;48.770;9.154;2022-08-03T15:20:10;16.10;;;2.47;;
2023;SDS011;1016;48.770;9.154;2022-08-03T15:22:38;15.70;;;2.80;;
2023;SDS011;1016;48.770;9.154;2022-08-03T15:25:04;15.93;;;2.90;;
2023;SDS011;1016;48.770;9.154;2022-08-03T15:27:30;15.60;;;3.00;;
2023;SDS011;1016;48.770;9.154;2022-08-03T15:29:56;15.70;;;3.05;;
2023;SDS011;1016;48.770;9.154;2022-08-03T15:32:21;15.30;;;2.30;;
2023;SDS011;1016;48.770;9.154;2022-08-03T15:34:47;14.90;;;2.17;;
2023;SDS011;1016;48.770;9.154;2022-08-03T15:37:12;15.17;;;2.37;;
2023;SDS011;1016;48.770;9.154;2022-08-03T15:39:38;15.40;;;2.20;;
2023;SDS011;1016;48.770;9.154;2022-08-03T15:42:03;15.53;;;2.50;;
2023;SDS011;1016;48.770;9.154;2022-08-03T15:44:29;15.70;;;2.30;;
2023;SDS011;1016;48.770;9.154;2022-08-03T15:46:54;15.50;;;2.20;;
2023;SDS011;1016;48.770;9.154;2022-08-03T15:49:20;15.70;;;2.60;;
2023;SDS011;1016;48.770;9.154;2022-08-03T15:51:46;16.67;;;2.30;;